Time;durP1;ratioP1;P1;durP2;ratioP2;P2;SDS_P1;SDS_P2;PMS_P1;PMS_P2;Temp;Humidity;BMP_temperature;BMP_pressure;BME280_temperature;BME280_humidity;BME280_pressure;Samples;Min_cycle;Max_cycle;Signal;HPM_P1;HPM_P2
2021/06/20 00:00:40;;;;;;;10.77;9.73;;;21.90;99.90;;;;;;4991198;28;20709;-73
2021/06/20 00:03:05;;;;;;;11.83;10.43;;;21.90;99.90;;;;;;4988823;28;20185;-73
2021/06/20 00:05:33;;;;;;;11.87;9.90;;;21.60;99.90;;;;;;4991108;28;20299;-73
2021/06/20 00:07:59;;;;;;;12.77;10.10;;;21.50;99.90;;;;;;4991295;28;20645;-72
2021/06/20 00:10:25;;;;;;;12.23;10.23;;;21.40;99.90;;;;;;4991270;28;20208;-73
2021/06/20 00:12:51;;;;;;;10.50;9.47;;;21.30;99.90;;;;;;4990817;28;20228;-74
2021/06/20 00:15:17;;;;;;;13.03;10.43;;;21.20;99.90;;;;;;4991013;28;20200;-74
2021/06/20 00:17:43;;;;;;;15.90;11.03;;;21.20;99.90;;;;;;4991161;28;20173;-73
2021/06/20 00:20:09;;;;;;;13.13;11.83;;;21.20;99.90;;;;;;4990907;28;20258;-74
2021/06/20 00:22:35;;;;;;;15.80;12.97;;;21.20;99.90;;;;;;4991308;28;20191;-73
2021/06/20 00:25:01;;;;;;;17.30;14.37;;;21.10;99.90;;;;;;4974588;28;20180;-73
2021/06/20 00:27:26;;;;;;;15.07;13.30;;;21.10;99.90;;;;;;4993711;28;20187;-74
2021/06/20 00:29:52;;;;;;;15.03;13.17;;;20.90;99.90;;;;;;4978213;28;20648;-74
2021/06/20 00:32:17;;;;;;;16.90;15.03;;;20.80;99.90;;;;;;4994489;28;20199;-74
2021/06/20 00:34:43;;;;;;;17.27;14.27;;;20.70;99.90;;;;;;4995528;28;20172;-73
2021/06/20 00:37:09;;;;;;;18.67;15.23;;;20.70;99.90;;;;;;4978460;28;20204;-74
2021/06/20 00:39:34;;;;;;;19.23;17.23;;;20.60;99.90;;;;;;4995410;28;20176;-73
2021/06/20 00:42:00;;;;;;;19.47;17.37;;;20.60;99.90;;;;;;4978136;28;20226;-74
2021/06/20 00:44:25;;;;;;;17.30;15.50;;;20.50;99.90;;;;;;4994182;28;20259;-73
2021/06/20 00:46:51;;;;;;;19.50;16.83;;;20.50;99.90;;;;;;4977912;28;20730;-73
2021/06/20 00:49:17;;;;;;;18.27;16.47;;;20.50;99.90;;;;;;4994153;28;20664;-74
2021/06/20 00:51:42;;;;;;;21.43;18.57;;;20.50;99.90;;;;;;4994291;28;20204;-74
2021/06/20 00:54:08;;;;;;;24.77;19.30;;;20.50;99.90;;;;;;4977639;28;20622;-74
2021/06/20 00:56:34;;;;;;;45.20;23.13;;;20.40;99.90;;;;;;4977675;28;20647;-75
2021/06/20 00:59:03;;;;;;;29.17;22.07;;;20.40;99.90;;;;;;4993903;28;20182;-74
2021/06/20 01:01:32;;;;;;;22.63;19.43;;;20.30;99.90;;;;;;4978053;28;20200;-74
2021/06/20 01:03:58;;;;;;;27.43;21.50;;;20.30;99.90;;;;;;4977550;28;20176;-75
2021/06/20 01:06:24;;;;;;;25.70;19.97;;;20.30;99.90;;;;;;4993628;28;20266;-74
2021/06/20 01:08:49;;;;;;;21.60;18.83;;;20.40;99.90;;;;;;4977612;28;20179;-75
2021/06/20 01:11:15;;;;;;;23.63;19.57;;;20.40;99.90;;;;;;4977515;28;20636;-75
2021/06/20 01:13:42;;;;;;;17.17;15.27;;;20.40;99.90;;;;;;4993583;28;20183;-75
2021/06/20 01:16:07;;;;;;;20.20;16.47;;;20.20;99.90;;;;;;4993965;28;20192;-75
2021/06/20 01:18:33;;;;;;;17.47;15.43;;;20.10;99.90;;;;;;4977794;28;20667;-75
2021/06/20 01:20:58;;;;;;;18.17;16.17;;;20.00;99.90;;;;;;4993695;28;20274;-75
2021/06/20 01:23:24;;;;;;;17.10;15.30;;;19.90;99.90;;;;;;4993656;28;20521;-74
2021/06/20 01:25:51;;;;;;;19.77;17.70;;;19.90;99.90;;;;;;4993578;28;20258;-75
2021/06/20 01:28:17;;;;;;;18.33;15.83;;;19.90;99.90;;;;;;4977488;28;20176;-75
2021/06/20 01:30:44;;;;;;;21.30;16.07;;;19.90;99.90;;;;;;4993374;28;20174;-74
2021/06/20 01:33:10;;;;;;;17.33;15.13;;;19.90;99.90;;;;;;4977361;28;20179;-75
2021/06/20 01:35:36;;;;;;;14.90;13.30;;;19.90;99.90;;;;;;4993278;28;20200;-75
2021/06/20 01:38:03;;;;;;;13.07;11.67;;;19.80;99.90;;;;;;4993336;28;20210;-75
2021/06/20 01:40:29;;;;;;;12.93;11.13;;;19.70;99.90;;;;;;4993372;28;20204;-75
2021/06/20 01:42:55;;;;;;;12.73;11.43;;;19.70;99.90;;;;;;4993237;28;20194;-75
2021/06/20 01:45:21;;;;;;;14.03;10.90;;;19.80;99.90;;;;;;4993161;28;20188;-75
2021/06/20 01:47:48;;;;;;;14.27;12.27;;;19.70;99.90;;;;;;4993259;28;20227;-75
2021/06/20 01:50:15;;;;;;;15.00;13.07;;;19.70;99.90;;;;;;4976905;28;20180;-75
2021/06/20 01:52:40;;;;;;;13.90;12.37;;;19.70;99.90;;;;;;4976796;28;20230;-75
2021/06/20 01:55:07;;;;;;;12.27;11.07;;;19.70;99.90;;;;;;4992986;28;20206;-75
2021/06/20 01:57:35;;;;;;;15.10;11.80;;;19.60;99.90;;;;;;4993191;28;20551;-75
2021/06/20 02:00:03;;;;;;;13.37;11.90;;;19.60;99.90;;;;;;4992832;28;20680;-75
2021/06/20 02:02:28;;;;;;;16.83;14.17;;;19.70;99.90;;;;;;4976919;28;20200;-75
2021/06/20 02:04:55;;;;;;;14.77;13.17;;;19.70;99.90;;;;;;4976362;28;20640;-75
2021/06/20 02:07:22;;;;;;;17.57;13.63;;;19.70;99.90;;;;;;4976677;28;20184;-75
2021/06/20 02:09:47;;;;;;;15.60;13.50;;;19.60;99.90;;;;;;4992712;28;20188;-75
2021/06/20 02:12:13;;;;;;;16.17;14.43;;;19.60;99.90;;;;;;4976451;28;20184;-75
2021/06/20 02:14:39;;;;;;;20.23;16.67;;;19.50;99.90;;;;;;4992496;28;20672;-74
2021/06/20 02:17:27;;;;;;;17.73;15.60;;;19.50;99.90;;;;;;4992536;28;20199;-75
2021/06/20 02:19:57;;;;;;;15.97;14.27;;;19.50;99.90;;;;;;4978314;28;20202;-75
2021/06/20 02:22:22;;;;;;;15.87;14.17;;;19.50;99.90;;;;;;4993303;28;20171;-75
2021/06/20 02:24:48;;;;;;;16.77;14.63;;;19.50;99.90;;;;;;4992182;28;20172;-75
2021/06/20 02:27:14;;;;;;;16.07;14.23;;;19.40;99.90;;;;;;4992331;28;20200;-74
2021/06/20 02:29:40;;;;;;;16.83;13.57;;;19.40;99.90;;;;;;4976144;28;20179;-74
2021/06/20 02:32:06;;;;;;;16.00;13.93;;;19.50;99.90;;;;;;4992373;28;20179;-75
2021/06/20 02:34:32;;;;;;;16.83;14.77;;;19.50;99.90;;;;;;4992300;28;20180;-74
2021/06/20 02:36:57;;;;;;;17.27;13.40;;;19.50;99.90;;;;;;4992066;28;20199;-74
2021/06/20 02:39:23;;;;;;;16.27;13.33;;;19.50;99.90;;;;;;4991600;28;20173;-75
2021/06/20 02:41:50;;;;;;;15.17;13.37;;;19.50;99.90;;;;;;4992177;28;20692;-75
2021/06/20 02:44:16;;;;;;;16.23;13.10;;;19.50;99.90;;;;;;4991925;28;20176;-75
2021/06/20 02:46:42;;;;;;;14.90;12.40;;;19.50;99.90;;;;;;4975696;28;20684;-75
2021/06/20 02:49:08;;;;;;;13.67;12.27;;;19.50;99.90;;;;;;4991634;28;20172;-74
2021/06/20 02:51:33;;;;;;;16.07;11.43;;;19.50;99.90;;;;;;4992130;28;20172;-75
2021/06/20 02:53:59;;;;;;;13.00;10.70;;;19.50;99.90;;;;;;4991927;28;20177;-75
2021/06/20 02:56:24;;;;;;;12.73;9.77;;;19.50;99.90;;;;;;4991797;28;20598;-75
2021/06/20 02:58:50;;;;;;;13.60;10.37;;;19.50;99.90;;;;;;4993009;28;20181;-74
2021/06/20 03:01:16;;;;;;;11.00;9.87;;;19.40;99.90;;;;;;4991581;28;20219;-74
2021/06/20 03:03:41;;;;;;;9.97;8.73;;;19.40;99.90;;;;;;4976187;28;20260;-76
2021/06/20 03:06:07;;;;;;;9.70;7.87;;;19.40;99.90;;;;;;4977196;28;20212;-75
2021/06/20 03:08:32;;;;;;;7.97;5.87;;;19.40;99.90;;;;;;4993811;28;20175;-76
2021/06/20 03:10:58;;;;;;;9.93;5.93;;;19.40;99.90;;;;;;4977495;28;20198;-76
2021/06/20 03:13:24;;;;;;;6.97;5.57;;;19.30;99.90;;;;;;4993183;28;20230;-75
2021/06/20 03:15:50;;;;;;;9.10;4.90;;;19.30;99.90;;;;;;4977215;28;20299;-75
2021/06/20 03:18:15;;;;;;;6.60;5.10;;;19.30;99.90;;;;;;4976611;28;20182;-75
2021/06/20 03:20:41;;;;;;;10.20;5.00;;;19.20;99.90;;;;;;4976825;28;20309;-76
2021/06/20 03:23:10;;;;;;;6.40;4.50;;;19.20;99.90;;;;;;4977171;28;20263;-75
2021/06/20 03:25:37;;;;;;;6.60;4.67;;;19.20;99.90;;;;;;4977965;28;20215;-75
2021/06/20 03:28:02;;;;;;;8.70;4.17;;;19.20;99.90;;;;;;4994058;28;20280;-76
2021/06/20 03:30:28;;;;;;;6.97;4.00;;;19.20;99.90;;;;;;4977263;28;20236;-75
2021/06/20 03:32:54;;;;;;;5.63;3.67;;;19.20;99.90;;;;;;4993842;28;20283;-76
2021/06/20 03:35:19;;;;;;;5.47;3.83;;;19.20;99.90;;;;;;4993336;28;20204;-76
2021/06/20 03:37:45;;;;;;;5.27;4.03;;;19.20;99.90;;;;;;4977430;28;20184;-75
2021/06/20 03:40:11;;;;;;;6.30;3.73;;;19.20;99.90;;;;;;4993658;28;20206;-75
2021/06/20 03:42:37;;;;;;;4.93;3.33;;;19.20;99.90;;;;;;4993779;28;20647;-75
2021/06/20 03:45:05;;;;;;;7.00;3.40;;;19.20;99.90;;;;;;4993287;28;20184;-75
2021/06/20 03:47:32;;;;;;;5.57;3.07;;;19.30;99.90;;;;;;4993947;28;20223;-75
2021/06/20 03:49:58;;;;;;;4.57;2.90;;;19.20;99.90;;;;;;4993814;28;20219;-76
2021/06/20 03:52:23;;;;;;;6.13;2.80;;;19.30;99.90;;;;;;4993953;28;20642;-76
2021/06/20 03:54:50;;;;;;;5.17;3.17;;;19.30;99.90;;;;;;4993812;28;20187;-75
2021/06/20 03:57:19;;;;;;;4.97;3.10;;;19.30;99.90;;;;;;4993885;28;20179;-76
2021/06/20 03:59:46;;;;;;;5.33;2.70;;;19.30;99.90;;;;;;4994366;28;20250;-75
2021/06/20 04:02:11;;;;;;;4.03;2.63;;;19.30;99.90;;;;;;4996318;28;20399;-75
2021/06/20 04:04:40;;;;;;;5.97;2.40;;;19.30;99.90;;;;;;4998057;28;20647;-75
2021/06/20 04:07:06;;;;;;;4.80;2.80;;;19.40;99.90;;;;;;4997983;28;20219;-75
2021/06/20 04:09:31;;;;;;;5.53;2.60;;;19.30;99.90;;;;;;4999253;28;20258;-75
2021/06/20 04:11:57;;;;;;;5.30;2.43;;;19.30;99.90;;;;;;4997628;28;20184;-75
2021/06/20 04:14:23;;;;;;;6.83;2.80;;;19.40;99.90;;;;;;4997762;28;20179;-75
2021/06/20 04:16:48;;;;;;;4.00;2.30;;;19.40;99.90;;;;;;4998734;28;20198;-75
2021/06/20 04:19:14;;;;;;;6.43;2.60;;;19.40;99.90;;;;;;4997286;28;20180;-76
2021/06/20 04:21:39;;;;;;;7.70;2.80;;;19.40;99.90;;;;;;4998385;28;20210;-74
2021/06/20 04:24:05;;;;;;;7.70;2.90;;;19.40;99.90;;;;;;4997186;28;20193;-75
2021/06/20 04:26:31;;;;;;;5.23;2.77;;;19.40;99.90;;;;;;4998318;28;20229;-75
2021/06/20 04:28:56;;;;;;;6.63;2.70;;;19.50;99.90;;;;;;4997111;28;20184;-75
2021/06/20 04:31:22;;;;;;;8.23;3.50;;;19.50;99.90;;;;;;5013580;28;20315;-75
2021/06/20 04:33:47;;;;;;;5.30;3.10;;;19.50;99.90;;;;;;5013304;28;20636;-75
2021/06/20 04:36:13;;;;;;;8.53;3.93;;;19.50;99.90;;;;;;5013132;28;20196;-75
2021/06/20 04:38:39;;;;;;;5.73;3.60;;;19.60;99.90;;;;;;5013312;28;20212;-75
2021/06/20 04:41:07;;;;;;;8.23;3.57;;;;;;;;;;5013527;28;20188;-75
2021/06/20 04:46:29;;;;;;;11.40;3.83;;;19.60;99.90;;;;;;4999447;28;20188;-75
2021/06/20 04:48:59;;;;;;;7.80;4.37;;;19.70;99.90;;;;;;5012398;28;20200;-75
2021/06/20 04:51:24;;;;;;;11.40;4.73;;;19.70;99.90;;;;;;5013010;28;20618;-75
2021/06/20 04:53:50;;;;;;;10.07;4.53;;;19.70;99.90;;;;;;4996482;28;20184;-75
2021/06/20 04:56:15;;;;;;;14.80;5.53;;;19.70;99.90;;;;;;4996664;28;20258;-75
2021/06/20 04:58:41;;;;;;;12.50;5.40;;;19.70;99.90;;;;;;5012699;28;20200;-75
2021/06/20 05:01:07;;;;;;;11.73;5.40;;;19.80;99.90;;;;;;5012673;28;20263;-76
2021/06/20 05:03:33;;;;;;;10.60;5.70;;;19.80;99.90;;;;;;4996199;28;20183;-74
2021/06/20 05:05:58;;;;;;;11.43;5.67;;;19.80;99.90;;;;;;4995682;28;20641;-75
2021/06/20 05:08:24;;;;;;;10.93;5.57;;;19.90;99.90;;;;;;5012959;28;20172;-75
2021/06/20 05:10:52;;;;;;;9.07;5.40;;;20.00;99.90;;;;;;5012793;28;20711;-75
2021/06/20 05:13:18;;;;;;;10.23;5.60;;;20.00;99.90;;;;;;5012057;28;20215;-75
2021/06/20 05:15:43;;;;;;;10.90;6.43;;;20.10;99.90;;;;;;5012816;28;20582;-75
2021/06/20 05:18:09;;;;;;;10.63;6.00;;;20.20;99.90;;;;;;4997203;28;20183;-75
2021/06/20 05:20:34;;;;;;;10.60;6.10;;;20.30;99.90;;;;;;5012303;28;20207;-75
2021/06/20 05:23:00;;;;;;;12.93;6.83;;;20.30;99.90;;;;;;4997834;28;20188;-75
2021/06/20 05:25:25;;;;;;;10.57;5.87;;;20.40;99.90;;;;;;4993495;28;20290;-74
2021/06/20 05:27:51;;;;;;;10.57;6.00;;;20.50;99.90;;;;;;4994721;28;20180;-74
2021/06/20 05:30:17;;;;;;;11.40;7.20;;;20.50;99.90;;;;;;4993542;28;20181;-74
2021/06/20 05:32:42;;;;;;;10.20;7.37;;;20.50;99.90;;;;;;4994401;28;20172;-74
2021/06/20 05:35:08;;;;;;;12.23;7.67;;;20.60;99.90;;;;;;5009673;28;20570;-74
2021/06/20 05:37:34;;;;;;;12.30;8.00;;;20.70;99.90;;;;;;4994630;28;20199;-74
2021/06/20 05:39:59;;;;;;;9.80;6.97;;;20.70;99.90;;;;;;4994311;28;20204;-74
2021/06/20 05:42:25;;;;;;;12.80;7.23;;;21.00;99.90;;;;;;5009661;28;20191;-74
2021/06/20 05:44:50;;;;;;;9.23;6.17;;;21.40;99.90;;;;;;4994438;28;20180;-75
2021/06/20 05:47:16;;;;;;;14.23;6.53;;;21.60;99.90;;;;;;5009557;28;20183;-74
2021/06/20 05:49:41;;;;;;;8.17;5.93;;;21.90;99.90;;;;;;4993060;28;20211;-74
2021/06/20 05:52:07;;;;;;;8.57;5.60;;;22.00;99.90;;;;;;5009393;28;20176;-74
2021/06/20 05:54:33;;;;;;;10.43;5.97;;;22.00;99.90;;;;;;5009069;28;20255;-75
2021/06/20 05:56:58;;;;;;;8.43;5.57;;;22.20;99.90;;;;;;5009318;28;20200;-75
2021/06/20 05:59:24;;;;;;;8.27;5.57;;;22.10;99.90;;;;;;5009306;28;20245;-75
2021/06/20 06:01:49;;;;;;;8.40;5.50;;;22.30;99.90;;;;;;5009307;28;20220;-75
2021/06/20 06:04:15;;;;;;;8.00;6.60;;;22.50;99.90;;;;;;4993743;28;20184;-74
2021/06/20 06:06:40;;;;;;;6.80;5.10;;;22.80;99.90;;;;;;4994312;28;20215;-74
2021/06/20 06:09:06;;;;;;;7.53;6.00;;;22.80;99.90;;;;;;4992678;28;20208;-74
2021/06/20 06:11:31;;;;;;;9.67;5.30;;;22.70;99.90;;;;;;5008982;28;20243;-75
2021/06/20 06:13:57;;;;;;;6.40;5.30;;;22.70;99.90;;;;;;5008776;28;20184;-75
2021/06/20 06:16:22;;;;;;;7.70;5.33;;;22.90;99.90;;;;;;5008889;28;20196;-74
2021/06/20 06:18:48;;;;;;;7.50;5.13;;;23.40;99.90;;;;;;4992676;28;20187;-74
2021/06/20 06:21:14;;;;;;;6.97;4.90;;;23.90;99.90;;;;;;4992378;28;20262;-75
2021/06/20 06:23:39;;;;;;;6.07;5.07;;;23.80;99.90;;;;;;5008030;28;20219;-75
2021/06/20 06:26:05;;;;;;;5.60;4.50;;;24.00;99.90;;;;;;4992428;28;20647;-75
2021/06/20 06:28:31;;;;;;;9.67;4.90;;;23.40;99.90;;;;;;5008701;28;20541;-75
2021/06/20 06:30:56;;;;;;;6.80;4.80;;;22.60;99.90;;;;;;5008701;28;20188;-75
2021/06/20 06:33:22;;;;;;;9.77;5.17;;;22.10;99.90;;;;;;4991778;28;20203;-74
2021/06/20 06:35:47;;;;;;;6.63;5.33;;;21.70;99.90;;;;;;5008394;28;20204;-75
2021/06/20 06:38:13;;;;;;;6.80;4.80;;;21.60;99.90;;;;;;4978879;28;20558;-75
2021/06/20 06:40:38;;;;;;;7.70;4.90;;;21.40;99.90;;;;;;4988795;28;20216;-75
2021/06/20 06:43:04;;;;;;;7.20;5.10;;;21.30;99.90;;;;;;4973794;28;20181;-75
2021/06/20 06:45:30;;;;;;;7.30;4.90;;;21.30;99.90;;;;;;4972378;28;20197;-74
2021/06/20 06:47:55;;;;;;;5.70;4.73;;;21.30;99.90;;;;;;4988802;28;20188;-75
2021/06/20 06:50:21;;;;;;;5.80;4.37;;;21.30;99.90;;;;;;4988749;28;20372;-74
2021/06/20 06:52:47;;;;;;;8.90;4.80;;;21.20;99.90;;;;;;4988478;28;20235;-74
2021/06/20 06:55:13;;;;;;;6.90;4.57;;;21.30;99.90;;;;;;4989035;28;20204;-74
2021/06/20 06:57:39;;;;;;;7.13;4.70;;;21.30;99.90;;;;;;4975971;28;20184;-73
2021/06/20 07:00:05;;;;;;;7.57;4.47;;;21.20;99.90;;;;;;4990142;28;20799;-73
2021/06/20 07:02:31;;;;;;;5.10;4.60;;;21.20;99.90;;;;;;5007688;28;20184;-73
2021/06/20 07:04:57;;;;;;;6.57;4.30;;;21.20;99.90;;;;;;4990980;28;20231;-73
2021/06/20 07:07:22;;;;;;;5.27;4.37;;;21.30;99.90;;;;;;4991823;28;20185;-73
2021/06/20 07:09:48;;;;;;;7.83;4.50;;;21.30;99.90;;;;;;5008237;28;20529;-72
2021/06/20 07:12:14;;;;;;;5.87;4.37;;;21.40;99.90;;;;;;5008385;28;20180;-73
2021/06/20 07:14:39;;;;;;;6.90;4.10;;;21.70;99.90;;;;;;5007558;28;20206;-72
2021/06/20 07:17:05;;;;;;;5.17;4.60;;;22.00;99.90;;;;;;5008102;28;20264;-73
2021/06/20 07:19:31;;;;;;;5.67;4.20;;;22.10;99.90;;;;;;4991962;28;20172;-74
2021/06/20 07:21:56;;;;;;;5.73;4.50;;;22.30;99.90;;;;;;4991762;28;20187;-72
2021/06/20 07:24:22;;;;;;;8.07;4.50;;;22.20;99.90;;;;;;4991409;28;20544;-73
2021/06/20 07:26:47;;;;;;;5.00;4.00;;;22.20;99.90;;;;;;4990976;28;20283;-73
2021/06/20 07:29:13;;;;;;;6.60;4.30;;;22.40;99.90;;;;;;4974843;28;20180;-73
2021/06/20 07:31:39;;;;;;;5.00;4.00;;;22.50;99.90;;;;;;4990969;28;20199;-75
2021/06/20 07:34:04;;;;;;;6.83;4.00;;;22.80;99.90;;;;;;4991449;28;20194;-75
2021/06/20 07:36:30;;;;;;;7.93;4.23;;;22.70;99.90;;;;;;4994297;28;20730;-75
2021/06/20 07:38:55;;;;;;;5.30;4.30;;;22.60;99.90;;;;;;4979077;28;20263;-75
2021/06/20 07:41:21;;;;;;;7.57;4.07;;;22.60;99.90;;;;;;4995428;28;20302;-77
2021/06/20 07:43:46;;;;;;;5.33;4.20;;;22.80;99.90;;;;;;4995347;28;20175;-75
2021/06/20 07:46:12;;;;;;;6.80;4.60;;;22.80;99.90;;;;;;4994969;28;20702;-75
2021/06/20 07:48:38;;;;;;;4.50;4.10;;;23.20;99.90;;;;;;4994968;28;20688;-74
2021/06/20 07:51:03;;;;;;;5.60;4.03;;;23.60;99.90;;;;;;4995270;28;20185;-75
2021/06/20 07:53:29;;;;;;;5.20;4.00;;;23.80;99.90;;;;;;4995206;28;20188;-75
2021/06/20 07:55:54;;;;;;;4.73;4.00;;;23.60;99.90;;;;;;4995074;28;20210;-77
2021/06/20 07:58:20;;;;;;;5.80;4.33;;;23.70;99.90;;;;;;4979351;28;20184;-76
2021/06/20 08:00:45;;;;;;;8.13;3.50;;;23.70;99.90;;;;;;4995074;28;20204;-75
2021/06/20 08:03:11;;;;;;;6.17;3.60;;;23.90;99.90;;;;;;4978000;28;20654;-75
2021/06/20 08:05:37;;;;;;;6.53;3.40;;;24.00;99.90;;;;;;4982367;28;20204;-76
2021/06/20 08:08:02;;;;;;;7.53;3.70;;;23.80;99.90;;;;;;5004713;28;20239;-76
2021/06/20 08:10:28;;;;;;;4.83;3.40;;;24.00;99.90;;;;;;4975290;28;20259;-76
2021/06/20 08:12:53;;;;;;;5.47;3.57;;;24.30;99.90;;;;;;4976493;28;20173;-77
2021/06/20 08:15:19;;;;;;;4.73;3.60;;;24.60;99.90;;;;;;4991616;28;20690;-78
2021/06/20 08:17:45;;;;;;;5.80;3.30;;;25.00;99.90;;;;;;4991602;28;20181;-75
2021/06/20 08:20:11;;;;;;;7.80;3.30;;;25.20;99.90;;;;;;4991378;28;20209;-76
2021/06/20 08:22:40;;;;;;;5.63;3.33;;;25.40;99.90;;;;;;4975169;28;20187;-76
2021/06/20 08:25:07;;;;;;;3.93;2.90;;;25.50;99.90;;;;;;4991508;28;20183;-75
2021/06/20 08:27:33;;;;;;;3.77;2.73;;;25.30;99.90;;;;;;4992101;28;20612;-76
2021/06/20 08:29:58;;;;;;;3.53;2.93;;;25.10;99.90;;;;;;4991520;28;20264;-78
2021/06/20 08:32:24;;;;;;;3.17;2.87;;;25.00;99.90;;;;;;4990966;28;20255;-76
2021/06/20 08:34:51;;;;;;;4.53;2.60;;;25.00;99.90;;;;;;4990830;28;20204;-75
2021/06/20 08:37:17;;;;;;;3.90;2.80;;;24.70;99.90;;;;;;4975184;28;20185;-76
2021/06/20 08:39:42;;;;;;;4.30;2.90;;;24.50;99.90;;;;;;4991614;28;20185;-77
2021/06/20 08:42:08;;;;;;;2.77;2.57;;;24.50;99.90;;;;;;4974828;28;20212;-75
2021/06/20 08:44:34;;;;;;;2.97;2.63;;;24.50;99.90;;;;;;4974503;28;20192;-76
2021/06/20 08:47:00;;;;;;;3.73;2.70;;;24.70;99.90;;;;;;4974324;28;20201;-76
2021/06/20 08:49:26;;;;;;;4.80;2.67;;;24.70;99.90;;;;;;4991126;28;20764;-79
2021/06/20 08:51:52;;;;;;;4.97;3.10;;;24.70;99.90;;;;;;5001347;28;20184;-77
2021/06/20 08:54:18;;;;;;;4.57;2.93;;;24.80;99.90;;;;;;4995289;28;20238;-79
2021/06/20 08:56:44;;;;;;;3.53;2.70;;;24.50;99.90;;;;;;4995306;28;20350;-79
2021/06/20 08:59:13;;;;;;;6.67;3.10;;;24.30;99.90;;;;;;4994869;28;20718;-79
2021/06/20 09:01:38;;;;;;;5.27;3.27;;;24.40;99.90;;;;;;4978115;28;20212;-77
2021/06/20 09:04:04;;;;;;;4.60;3.10;;;24.40;99.90;;;;;;4994160;28;20203;-76
2021/06/20 09:06:30;;;;;;;5.13;2.90;;;24.60;99.90;;;;;;4993848;28;20680;-75
2021/06/20 09:08:57;;;;;;;3.00;2.63;;;24.70;99.90;;;;;;4977742;28;20637;-76
2021/06/20 09:11:43;;;;;;;5.83;3.00;;;24.70;99.90;;;;;;4994090;28;20246;-76
2021/06/20 09:14:15;;;;;;;8.67;2.90;;;24.60;99.90;;;;;;4993832;28;20207;-75
2021/06/20 09:16:53;;;;;;;5.43;2.93;;;24.30;99.90;;;;;;4993744;28;20200;-76
2021/06/20 09:19:32;;;;;;;3.10;2.87;;;24.40;99.90;;;;;;4977587;28;20195;-75
2021/06/20 09:22:01;;;;;;;2.70;2.40;;;24.60;99.90;;;;;;4977773;28;20258;-76
2021/06/20 09:24:26;;;;;;;2.53;2.33;;;24.80;99.90;;;;;;4993841;28;20546;-76
2021/06/20 09:26:53;;;;;;;3.90;2.30;;;24.90;99.90;;;;;;4993573;28;20198;-76
2021/06/20 09:29:28;;;;;;;3.27;2.13;;;25.10;99.90;;;;;;4977669;28;20180;-76
2021/06/20 09:31:53;;;;;;;4.63;2.10;;;25.20;99.90;;;;;;4993807;28;20168;-75
2021/06/20 09:34:19;;;;;;;5.23;2.27;;;25.20;99.90;;;;;;4993098;28;20242;-76
2021/06/20 09:36:45;;;;;;;3.27;2.40;;;25.30;99.90;;;;;;4993222;28;20196;-76
2021/06/20 09:39:19;;;;;;;5.53;2.43;;;25.30;99.90;;;;;;4977070;28;20192;-76
2021/06/20 09:42:04;;;;;;;3.13;1.97;;;25.20;99.90;;;;;;4977093;28;20212;-76
2021/06/20 09:44:36;;;;;;;3.90;2.30;;;25.10;99.90;;;;;;4976798;28;20184;-76
2021/06/20 09:47:02;;;;;;;3.27;1.90;;;25.40;99.90;;;;;;4993129;28;20198;-76
2021/06/20 09:49:28;;;;;;;3.07;2.20;;;25.60;99.90;;;;;;4993179;28;20180;-76
2021/06/20 09:51:55;;;;;;;2.53;1.60;;;25.80;99.90;;;;;;4993025;28;20181;-75
2021/06/20 09:54:28;;;;;;;3.43;1.53;;;25.90;99.90;;;;;;4992973;28;20640;-76
2021/06/20 09:56:54;;;;;;;2.10;1.70;;;25.70;99.90;;;;;;4992937;28;20342;-75
2021/06/20 09:59:26;;;;;;;4.43;1.70;;;25.40;99.90;;;;;;4976702;28;20275;-76
2021/06/20 10:01:51;;;;;;;3.17;1.40;;;25.30;99.90;;;;;;4976804;28;20296;-76
2021/06/20 10:04:17;;;;;;;2.93;1.40;;;25.10;99.90;;;;;;4992707;28;20315;-76
2021/06/20 10:06:42;;;;;;;1.97;1.40;;;24.90;99.90;;;;;;4992665;28;20239;-75
2021/06/20 10:09:08;;;;;;;1.70;1.10;;;24.70;99.90;;;;;;4992807;28;20322;-75
2021/06/20 10:11:33;;;;;;;2.37;1.73;;;24.70;99.90;;;;;;4976554;28;20180;-76
2021/06/20 10:13:59;;;;;;;2.63;1.30;;;24.90;99.90;;;;;;4992635;28;20184;-76
2021/06/20 10:16:33;;;;;;;3.87;1.97;;;25.10;99.90;;;;;;4992462;28;20227;-76
2021/06/20 10:19:17;;;;;;;3.07;2.00;;;25.30;99.90;;;;;;4993625;28;20535;-75
2021/06/20 10:21:47;;;;;;;3.73;1.50;;;25.20;99.90;;;;;;4993075;28;20235;-75
2021/06/20 10:24:17;;;;;;;3.27;1.50;;;25.00;99.90;;;;;;4976017;28;20188;-75
2021/06/20 10:27:04;;;;;;;2.73;1.40;;;25.00;99.90;;;;;;4992297;28;20269;-75
2021/06/20 10:29:30;;;;;;;1.43;1.27;;;25.20;99.90;;;;;;4993542;28;20654;-76
2021/06/20 10:31:57;;;;;;;2.63;1.50;;;25.30;99.90;;;;;;4975994;28;20225;-76
2021/06/20 10:34:30;;;;;;;2.73;1.20;;;25.30;99.90;;;;;;4992358;28;20545;-75
2021/06/20 10:36:58;;;;;;;3.50;1.50;;;25.10;99.90;;;;;;4992110;28;20683;-75
2021/06/20 10:39:24;;;;;;;2.70;1.40;;;25.20;99.90;;;;;;4972648;28;20185;-76
2021/06/20 10:42:05;;;;;;;1.47;1.30;;;25.40;99.90;;;;;;4988936;28;20213;-77
2021/06/20 10:44:50;;;;;;;2.77;1.30;;;25.50;99.90;;;;;;5004211;28;20176;-75
2021/06/20 10:47:35;;;;;;;3.07;1.40;;;25.40;99.90;;;;;;4972532;28;20193;-74
2021/06/20 10:50:01;;;;;;;3.33;1.50;;;25.40;99.90;;;;;;5005786;28;20192;-76
2021/06/20 10:52:27;;;;;;;3.20;1.35;;;25.60;99.90;;;;;;4992975;28;20195;-75
2021/06/20 10:55:06;;;;;;;4.95;1.42;;;25.90;99.90;;;;;;4991623;28;20180;-75
2021/06/20 10:57:32;;;;;;;3.92;1.35;;;26.10;99.90;;;;;;4975707;28;20188;-76
2021/06/20 10:59:58;;;;;;;3.85;1.20;;;26.20;99.90;;;;;;4992444;28;20175;-75
2021/06/20 11:02:24;;;;;;;2.45;1.30;;;26.10;99.90;;;;;;4991633;28;20212;-75
2021/06/20 11:04:49;;;;;;;3.10;1.30;;;25.90;99.90;;;;;;5007872;28;20746;-76
2021/06/20 11:07:27;;;;;;;3.73;1.30;;;25.60;99.90;;;;;;5008027;28;20260;-76
2021/06/20 11:09:52;;;;;;;3.38;1.30;;;25.50;99.90;;;;;;4991272;28;20173;-76
2021/06/20 11:12:18;;;;;;;2.17;1.30;;;25.50;99.90;;;;;;5007994;28;20191;-76
2021/06/20 11:14:49;;;;;;;3.50;1.35;;;25.40;99.90;;;;;;4991476;28;20187;-75
2021/06/20 11:17:15;;;;;;;2.53;1.30;;;25.40;99.90;;;;;;5007723;28;20173;-75
2021/06/20 11:20:06;;;;;;;2.20;1.23;;;25.50;99.90;;;;;;4994263;28;20184;-76
2021/06/20 11:22:38;;;;;;;1.83;1.20;;;25.70;99.90;;;;;;4996815;28;20198;-76
2021/06/20 11:25:32;;;;;;;1.23;1.10;;;25.80;99.90;;;;;;5012405;28;20250;-75
2021/06/20 11:27:59;;;;;;;1.52;1.40;;;25.80;99.90;;;;;;4996707;28;20195;-77
2021/06/20 11:30:31;;;;;;;1.97;1.30;;;25.80;99.90;;;;;;4996504;28;20197;-76
2021/06/20 11:33:02;;;;;;;2.25;1.25;;;25.80;99.90;;;;;;5011413;28;20188;-75
2021/06/20 11:35:38;;;;;;;1.58;1.23;;;26.00;99.90;;;;;;4989952;28;20212;-76
2021/06/20 11:38:16;;;;;;;2.78;2.10;;;26.10;99.90;;;;;;5011570;28;20176;-76
2021/06/20 11:40:53;;;;;;;3.75;1.15;;;26.20;99.90;;;;;;4991116;28;20216;-75
2021/06/20 11:43:26;;;;;;;1.55;1.10;;;26.40;99.90;;;;;;5012030;28;20199;-77
2021/06/20 11:45:53;;;;;;;2.55;1.30;;;26.60;99.90;;;;;;4980198;28;20208;-75
2021/06/20 11:48:24;;;;;;;2.05;1.10;;;26.90;99.90;;;;;;5012891;28;20865;-76
2021/06/20 11:50:50;;;;;;;1.95;1.05;;;26.90;99.90;;;;;;4993752;28;20192;-76
2021/06/20 11:53:17;;;;;;;1.85;1.20;;;26.70;99.90;;;;;;5010207;28;20176;-76
2021/06/20 11:55:44;;;;;;;2.30;1.05;;;26.70;99.90;;;;;;4994751;28;20283;-76
2021/06/20 11:58:12;;;;;;;2.30;1.30;;;26.70;99.90;;;;;;4995126;28;20195;-75
2021/06/20 12:00:39;;;;;;;1.77;1.20;;;26.60;99.90;;;;;;4996339;28;20603;-76
2021/06/20 12:03:11;;;;;;;2.60;1.10;;;26.60;99.90;;;;;;4994581;28;20191;-76
2021/06/20 12:05:55;;;;;;;4.03;1.33;;;26.60;99.90;;;;;;4996580;28;20203;-77
2021/06/20 12:08:21;;;;;;;3.25;1.10;;;26.70;99.90;;;;;;4995891;28;20181;-76
2021/06/20 12:10:47;;;;;;;1.88;0.90;;;26.80;99.90;;;;;;4995207;28;20184;-76
2021/06/20 12:13:13;;;;;;;2.05;0.90;;;27.00;99.90;;;;;;4979127;28;20601;-76
2021/06/20 12:15:39;;;;;;;2.45;1.00;;;27.10;99.90;;;;;;4978787;28;20257;-76
2021/06/20 12:18:09;;;;;;;3.55;1.15;;;27.10;99.90;;;;;;4994272;28;20180;-77
2021/06/20 12:20:38;;;;;;;1.83;1.15;;;27.10;99.90;;;;;;4995483;28;20226;-77
2021/06/20 12:23:04;;;;;;;4.30;1.30;;;26.90;99.90;;;;;;4996701;28;20176;-75
2021/06/20 12:25:41;;;;;;;1.02;0.80;;;26.80;99.90;;;;;;4999904;28;20295;-74
2021/06/20 12:28:13;;;;;;;1.98;1.08;;;26.50;99.90;;;;;;4999308;28;20222;-74
2021/06/20 12:30:40;;;;;;;1.50;1.00;;;26.30;99.90;;;;;;4999294;28;20191;-73
2021/06/20 12:33:10;;;;;;;3.47;1.00;;;26.40;99.90;;;;;;4998957;28;20679;-74
2021/06/20 12:35:36;;;;;;;2.13;0.90;;;26.30;99.90;;;;;;5012808;28;20414;-76
2021/06/20 12:38:11;;;;;;;2.13;1.13;;;26.20;99.90;;;;;;5014079;28;20192;-75
2021/06/20 12:40:37;;;;;;;2.38;1.00;;;26.20;99.90;;;;;;5002578;28;20199;-75
2021/06/20 12:43:04;;;;;;;1.80;1.10;;;26.30;99.90;;;;;;4999937;28;20242;-76